Latest Weather Observations for Mount Crawford

IDS60901

Issued at 8:51 pm CST Sunday 3 July 2022 (issued every 10 minutes, with the page automatically refreshed every 10 minutes)

About weather observations | Map of Adelaide area stations | Latest observations for Adelaide area | Other Formats
Station Details ID: 023878 Name: MOUNT CRAWFORD AWS Lat: -34.73 Lon: 138.93 Height: 525.0 m
Data from the previous 72 hours. | See also: Recent months at Mount Crawford
Date/Time
CST
Temp
°C
App
Temp
°C
Dew
Point
°C
Rel
Hum
%
Delta-T
°C
Wind Press
QNH
hPa
Press
MSL
hPa
Rain since
9am
mm
Dir  Spd
km/h
Gust
km/h
Spd
kts
Gust
kts
03/08:30pm 5.7 -1.2 2.4 79 1.4 SSE 28 37 15 20 1026.4 1027.0 0.0
03/08:07pm 5.7 -1.2 2.4 79 1.4 SSE 28 46 15 25 1026.4 1027.0 0.0
03/08:00pm 5.7 -2.0 2.4 79 1.4 SSE 32 44 17 24 1026.5 1027.1 0.0
03/07:46pm 5.6 -1.3 2.3 79 1.4 SE 28 44 15 24 1026.4 1027.0 0.0
03/07:30pm 5.6 -0.2 2.1 78 1.5 SSE 22 39 12 21 1026.5 1027.1 0.0
03/07:00pm 5.7 0.8 2.2 78 1.5 SSE 17 32 9 17 1026.7 1027.3 0.0
03/06:30pm 6.1 -0.5 2.2 76 1.6 SSE 26 41 14 22 1026.3 1026.9 0.0
03/06:00pm 6.2 0.0 2.3 76 1.6 SSE 24 43 13 23 1026.2 1026.8 0.0
03/05:30pm 6.5 -0.4 2.6 76 1.7 SSE 28 37 15 20 1026.1 1026.6 0.0
03/05:00pm 6.5 0.3 2.2 74 1.8 SSE 24 41 13 22 1025.9 1026.4 0.0
03/04:30pm 6.9 0.8 2.8 75 1.8 SSE 24 37 13 20 1025.9 1026.4 0.0
03/04:00pm 7.7 2.4 3.2 73 2.0 SSE 20 30 11 16 1025.9 1026.4 0.0
03/03:30pm 7.2 1.1 2.5 72 2.0 SSE 24 33 13 18 1025.7 1026.2 0.0
03/03:00pm 7.6 1.5 2.7 71 2.1 SSE 24 33 13 18 1025.8 1026.3 0.0
03/02:30pm 7.7 1.6 3.0 72 2.0 SSE 24 35 13 19 1025.6 1026.1 0.0
03/02:00pm 7.7 2.1 3.2 73 2.0 SSE 22 32 12 17 1025.6 1026.1 0.0
03/01:30pm 7.3 2.0 2.8 73 1.9 SSE 20 35 11 19 1026.0 1026.5 0.0
03/01:00pm 6.8 1.7 3.1 77 1.6 SSE 19 33 10 18 1026.5 1027.1 0.0
03/12:30pm 6.9 1.3 3.2 77 1.6 SSE 22 35 12 19 1027.0 1027.6 0.0
03/12:00pm 6.7 1.1 3.3 79 1.5 SSE 22 35 12 19 1027.4 1027.9 0.0
03/11:30am 6.1 0.1 3.3 82 1.2 SSE 24 37 13 20 1027.6 1028.1 0.0
03/11:00am 5.8 -0.2 3.3 84 1.1 SE 24 39 13 21 1028.0 1028.6 0.0
03/10:30am 5.1 -0.6 3.0 86 0.9 SE 22 33 12 18 1028.3 1028.9 0.0
03/10:00am 4.3 -2.9 3.1 92 0.5 SE 30 43 16 23 1028.1 1028.7 0.0
03/09:30am 4.2 -1.0 3.3 94 0.4 SE 20 33 11 18 1028.2 1028.8 0.0
03/09:00am 4.0 -1.6 3.3 95 0.3 SE 22 37 12 20 1028.2 1028.8 0.4
03/08:30am 3.7 -2.7 3.1 96 0.3 SE 26 41 14 22 1028.2 1028.8 0.4
03/08:02am 3.8 -3.0 2.9 94 0.4 SE 28 48 15 26 1027.7 1028.2 0.4
03/08:00am 3.8 -2.6 3.1 95 0.3 SE 26 48 14 26 1027.8 1028.4 0.4
03/07:30am 3.9 -2.1 3.5 97 0.2 SE 24 37 13 20 1027.5 1028.0 0.4
03/07:00am 3.9 -2.5 3.3 96 0.3 SE 26 39 14 21 1027.4 1027.9 0.4
03/06:30am 4.2 -1.3 3.8 97 0.2 SE 22 32 12 17 1027.3 1027.8 0.4
03/06:00am 4.1 -1.9 3.5 96 0.3 SSE 24 35 13 19 1026.9 1027.5 0.4
03/05:30am 4.2 -1.0 3.6 96 0.3 SE 20 28 11 15 1026.9 1027.5 0.4
03/05:00am 4.2 -1.4 3.5 95 0.3 SE 22 35 12 19 1026.7 1027.3 0.4
03/04:30am 4.2 -1.0 3.5 95 0.3 SE 20 33 11 18 1026.6 1027.2 0.4
03/04:00am 4.3 -0.8 3.9 97 0.2 SE 20 30 11 16 1026.8 1027.4 0.4
03/03:30am 4.3 -0.8 4.0 98 0.1 SE 20 33 11 18 1027.1 1027.7 0.4
03/03:00am 4.5 -0.6 4.2 98 0.1 SE 20 33 11 18 1027.4 1027.9 0.4
03/02:30am 4.6 -0.5 4.3 98 0.1 SE 20 35 11 19 1027.7 1028.2 0.2
03/02:00am 4.7 -0.3 4.4 98 0.1 SE 20 33 11 18 1027.7 1028.2 0.2
03/01:30am 4.8 -0.6 4.5 98 0.1 SE 22 35 12 19 1027.8 1028.4 0.2
03/01:00am 5.0 -0.7 4.7 98 0.1 ESE 24 37 13 20 1027.8 1028.4 0.2
03/12:30am 4.9 -0.1 4.6 98 0.1 ESE 20 35 11 19 1027.8 1028.4 0.2
03/12:00am 4.9 -0.1 4.5 97 0.2 ESE 20 32 11 17 1028.0 1028.6 0.0
 
Date/Time
CST
Temp
°C
App
Temp
°C
Dew
Point
°C
Rel
Hum
%
Delta-T
°C
Wind Press
QNH
hPa
Press
MSL
hPa
Rain since
9am
mm
Dir  Spd
km/h
Gust
km/h
Spd
kts
Gust
kts
02/11:30pm 4.9 -0.9 4.3 96 0.3 SE 24 35 13 19 1028.2 1028.8 0.0
02/11:00pm 4.9 -0.9 4.5 97 0.2 SE 24 35 13 19 1028.4 1029.0 0.0
02/10:30pm 4.9 0.0 4.3 96 0.3 SE 19 26 10 14 1028.4 1029.0 0.0
02/10:00pm 4.9 0.4 4.2 95 0.3 SE 17 30 9 16 1028.5 1029.1 0.0
02/09:30pm 5.1 -0.8 4.1 93 0.4 SSE 24 33 13 18 1028.7 1029.3 0.0
02/09:00pm 5.1 0.0 4.2 94 0.4 SSE 20 30 11 16 1028.8 1029.4 0.0
02/08:30pm 4.9 0.4 4.2 95 0.3 SSE 17 24 9 13 1028.7 1029.3 0.0
02/08:00pm 4.8 0.3 4.1 95 0.3 S 17 26 9 14 1028.8 1029.4 0.0
02/07:30pm 4.8 0.2 3.9 94 0.4 S 17 24 9 13 1028.7 1029.3 0.0
02/07:00pm 5.1 1.2 3.6 90 0.6 S 13 19 7 10 1028.7 1029.3 0.0
02/06:30pm 5.8 2.2 3.1 83 1.1 SSE 11 15 6 8 1028.6 1029.2 0.0
02/06:00pm 6.0 1.7 3.0 81 1.3 S 15 26 8 14 1028.7 1029.3 0.0
02/05:30pm 6.1 1.0 3.1 81 1.3 SSE 19 28 10 15 1028.6 1029.2 0.0
02/05:00pm 6.0 1.3 3.0 81 1.3 SSE 17 30 9 16 1028.7 1029.3 0.0
02/04:30pm 6.2 0.5 2.8 79 1.4 SSE 22 30 12 16 1028.9 1029.5 0.0
02/04:00pm 6.5 1.8 3.1 79 1.5 SSE 17 28 9 15 1028.8 1029.4 0.0
02/03:30pm 7.0 2.7 3.1 76 1.7 SE 15 22 8 12 1028.8 1029.4 0.0
02/03:00pm 7.2 2.5 3.4 77 1.7 SSE 17 26 9 14 1028.8 1029.4 0.0
02/02:30pm 7.4 2.8 3.8 78 1.6 SSE 17 26 9 14 1028.8 1029.4 0.0
02/02:00pm 7.4 3.2 3.6 77 1.7 SSE 15 24 8 13 1029.0 1029.6 0.0
02/01:30pm 7.4 2.7 3.3 75 1.8 SE 17 28 9 15 1029.0 1029.6 0.0
02/01:00pm 7.9 2.4 3.8 75 1.8 SE 22 33 12 18 1029.4 1029.9 0.0
02/12:30pm 7.4 2.4 3.5 76 1.7 SSE 19 26 10 14 1029.8 1030.4 0.0
02/12:00pm 7.7 3.5 3.9 77 1.7 SSE 15 22 8 12 1030.2 1030.8 0.0
02/11:30am 6.7 2.0 3.3 79 1.5 SE 17 24 9 13 1030.5 1031.1 0.0
02/11:00am 6.0 1.3 3.0 81 1.3 SE 17 24 9 13 1030.7 1031.3 0.0
02/10:30am 5.9 0.5 2.7 80 1.3 SE 20 30 11 16 1030.7 1031.3 0.0
02/10:00am 5.8 0.1 3.1 83 1.2 SE 22 32 12 17 1030.6 1031.2 0.0
02/09:30am 5.4 0.4 3.6 88 0.8 SE 19 28 10 15 1030.6 1031.2 0.0
02/09:00am 5.0 -0.1 3.0 87 0.8 SE 19 32 10 17 1030.6 1031.2 0.2
02/08:30am 4.4 -0.3 3.1 91 0.5 SSE 17 24 9 13 1030.5 1031.1 0.2
02/08:00am 4.3 0.3 2.8 90 0.6 SE 13 20 7 11 1030.4 1031.0 0.2
02/07:30am 4.4 0.0 2.6 88 0.7 SE 15 22 8 12 1030.4 1031.0 0.2
02/07:00am 4.4 0.3 2.4 87 0.8 SE 13 19 7 10 1030.4 1031.0 0.2
02/06:30am 4.3 -0.6 2.3 87 0.8 SSE 17 26 9 14 1030.0 1030.6 0.2
02/06:00am 4.2 -0.6 2.4 88 0.7 SE 17 24 9 13 1029.8 1030.4 0.2
02/05:30am 4.3 -0.6 2.3 87 0.8 ESE 17 26 9 14 1029.8 1030.4 0.2
02/05:00am 4.5 -0.7 2.2 85 1.0 ESE 19 28 10 15 1029.8 1030.4 0.2
02/04:30am 4.6 0.1 2.1 84 1.0 ESE 15 26 8 14 1030.0 1030.6 0.2
02/04:00am 4.6 0.1 2.0 83 1.1 SE 15 24 8 13 1030.2 1030.8 0.2
02/03:30am 4.5 -0.8 1.7 82 1.1 SE 19 24 10 13 1030.4 1031.0 0.2
02/03:00am 4.4 -0.6 1.6 82 1.1 SE 17 30 9 16 1030.6 1031.2 0.2
02/02:30am 4.3 -1.2 1.7 83 1.1 SE 20 32 11 17 1030.7 1031.3 0.2
02/02:00am 4.4 -0.2 1.4 81 1.2 SE 15 24 8 13 1030.7 1031.3 0.2
02/01:30am 4.5 0.3 1.9 83 1.1 SE 13 20 7 11 1030.7 1031.3 0.2
02/01:00am 4.6 -0.3 1.8 82 1.1 SE 17 28 9 15 1030.7 1031.3 0.2
02/12:30am 4.7 0.2 1.9 82 1.1 SE 15 22 8 12 1030.9 1031.5 0.2
02/12:00am 4.9 0.0 2.1 82 1.2 SSE 17 24 9 13 1031.1 1031.8 0.2
 
Date/Time
CST
Temp
°C
App
Temp
°C
Dew
Point
°C
Rel
Hum
%
Delta-T
°C
Wind Press
QNH
hPa
Press
MSL
hPa
Rain since
9am
mm
Dir  Spd
km/h
Gust
km/h
Spd
kts
Gust
kts
01/11:30pm 4.8 -0.1 2.2 83 1.1 SSE 17 24 9 13 1031.1 1031.8 0.2
01/11:00pm 4.9 0.8 2.4 84 1.0 SSE 13 24 7 13 1031.3 1031.9 0.2
01/10:30pm 4.9 0.4 2.4 84 1.0 SE 15 22 8 12 1031.3 1031.9 0.2
01/10:00pm 5.0 -0.2 2.4 83 1.1 SSE 19 26 10 14 1031.3 1031.9 0.2
01/09:30pm 5.1 0.3 2.5 83 1.1 SE 17 24 9 13 1031.3 1031.9 0.2
01/09:00pm 5.3 1.3 3.0 85 1.0 SE 13 20 7 11 1031.1 1031.8 0.2
01/08:30pm 5.5 1.5 3.0 84 1.1 SE 13 24 7 13 1031.1 1031.8 0.2
01/08:00pm 5.4 1.0 2.6 82 1.2 SE 15 26 8 14 1031.0 1031.7 0.2
01/07:30pm 5.5 0.1 2.5 81 1.3 SSE 20 30 11 16 1031.0 1031.7 0.2
01/07:00pm 5.7 0.4 2.9 82 1.2 SSE 20 30 11 16 1030.9 1031.5 0.2
01/06:30pm 5.9 1.6 3.1 82 1.2 SSE 15 24 8 13 1030.6 1031.2 0.2
01/06:00pm 6.1 0.7 2.7 79 1.4 SSE 20 28 11 15 1030.3 1030.9 0.2
01/05:30pm 6.4 2.1 3.4 81 1.3 SSE 15 22 8 12 1030.0 1030.6 0.2
01/05:00pm 6.7 2.4 3.3 79 1.5 S 15 26 8 14 1030.0 1030.6 0.2
01/04:30pm 6.9 2.2 3.3 78 1.6 S 17 24 9 13 1029.9 1030.5 0.2
01/04:00pm 7.1 2.5 3.5 78 1.6 S 17 28 9 15 1029.8 1030.4 0.2
01/03:30pm 7.2 2.7 4.0 80 1.4 S 17 26 9 14 1029.9 1030.5 0.2
01/03:00pm 7.5 3.0 4.1 79 1.5 SSW 17 22 9 12 1029.8 1030.4 0.0
01/02:30pm 7.8 4.1 4.2 78 1.6 SSW 13 20 7 11 1029.8 1030.4 0.0
01/02:00pm 7.9 4.1 3.9 76 1.8 SSE 13 19 7 10 1030.1 1030.7 0.0
01/01:30pm 7.8 4.1 4.2 78 1.6 S 13 19 7 10 1030.5 1031.1 0.0
01/01:00pm 7.8 4.0 3.8 76 1.8 SSE 13 19 7 10 1030.6 1031.2 0.0
01/12:30pm 8.0 4.8 4.9 81 1.4 SE 11 17 6 9 1031.0 1031.7 0.0
01/12:00pm 7.9 3.4 4.1 77 1.7 SSE 17 26 9 14 1031.3 1031.9 0.0
01/11:30am 7.4 3.0 4.5 82 1.3 SE 17 22 9 12 1031.7 1032.3 0.0
01/11:00am 7.3 3.2 4.4 82 1.3 SSE 15 20 8 11 1031.9 1032.5 0.0
01/10:30am 7.1 2.6 4.4 83 1.2 SSE 17 24 9 13 1032.0 1032.6 0.0
01/10:00am 7.1 2.3 4.9 86 1.0 SSE 19 30 10 16 1031.8 1032.4 0.0
01/09:30am 6.8 4.2 6.1 95 0.3 SSE 9 13 5 7 1031.5 1032.1 0.0
01/09:00am 6.3 3.3 5.9 97 0.2 SE 11 17 6 9 1031.5 1031.9 0.4
01/08:30am 6.2 2.4 5.8 97 0.2 SSE 15 20 8 11 1031.1 1031.6 0.4
01/08:00am 6.1 2.7 5.8 98 0.1 SE 13 19 7 10 1030.7 1031.2 0.4
01/07:30am 6.2 2.4 5.9 98 0.1 SE 15 20 8 11 1030.5 1031.0 0.4
01/07:00am 6.2 2.4 5.9 98 0.1 SE 15 22 8 12 1030.2 1030.7 0.4
01/06:30am 6.3 2.5 6.0 98 0.1 SE 15 24 8 13 1030.0 1030.4 0.4
01/06:00am 6.4 2.3 6.1 98 0.1 SE 17 24 9 13 1029.8 1030.2 0.4
01/05:30am 6.7 2.3 6.6 99 0.0 SSE 19 26 10 14 1029.5 1029.9 0.4
01/05:00am 6.9 3.3 6.6 98 0.1 SE 15 22 8 12 1029.3 1029.7 0.4
01/04:30am 6.8 3.5 6.5 98 0.1 SE 13 22 7 12 1029.1 1029.6 0.4
01/04:00am 6.7 2.1 6.4 98 0.1 SE 20 26 11 14 1029.1 1029.6 0.2
01/03:30am 6.8 3.5 6.5 98 0.1 SSE 13 26 7 14 1029.1 1029.6 0.2
01/03:00am 6.8 1.8 6.5 98 0.1 SSE 22 32 12 17 1029.0 1029.5 0.2
01/02:30am 6.9 1.9 6.6 98 0.1 SE 22 35 12 19 1028.8 1029.3 0.2
01/02:00am 7.1 3.5 6.8 98 0.1 SE 15 28 8 15 1028.8 1029.3 0.2
01/01:30am 7.3 2.4 7.0 98 0.1 SE 22 33 12 18 1028.4 1028.8 0.2
01/01:00am 7.5 2.6 7.1 97 0.2 SE 22 32 12 17 1028.3 1028.7 0.2
01/12:30am 7.8 3.0 7.4 97 0.2 SE 22 32 12 17 1028.2 1028.6 0.2
01/12:00am 7.7 2.5 7.1 96 0.3 SE 24 39 13 21 1028.4 1028.8 0.2
 
Date/Time
CST
Temp
°C
App
Temp
°C
Dew
Point
°C
Rel
Hum
%
Delta-T
°C
Wind Press
QNH
hPa
Press
MSL
hPa
Rain since
9am
mm
Dir  Spd
km/h
Gust
km/h
Spd
kts
Gust
kts
30/11:30pm 7.6 3.3 7.0 96 0.3 SSE 19 28 10 15 1028.5 1028.9 0.2
30/11:00pm 7.5 3.6 6.9 96 0.3 SE 17 28 9 15 1028.5 1028.9 0.2
30/10:30pm 7.1 3.8 6.4 95 0.3 SSE 13 19 7 10 1028.5 1028.9 0.2
30/10:00pm 7.1 3.8 6.4 95 0.3 SSE 13 19 7 10 1028.4 1028.8 0.2
30/09:30pm 7.3 3.7 6.6 95 0.3 SSE 15 22 8 12 1028.2 1028.6 0.2
30/09:00pm 6.9 3.6 6.3 96 0.3 SSE 13 19 7 10 1028.0 1028.4 0.2

Latest Capital City Observations: Canberra | Sydney | Melbourne | Brisbane | Adelaide | Perth | Hobart | Darwin

Other formats

Comma delimited format used in spreadsheet applications
http://www.bom.gov.au/fwo/IDS60901/IDS60901.94678.axf

JavaScript Object Notation format (JSON) in row-major order
http://www.bom.gov.au/fwo/IDS60901/IDS60901.94678.json

Data quality

Most of these data are generated automatically and are frequently updated. Quality checks on data are not normally performed. It is possible for incorrect values to appear. Refer to information at About Latest Weather Observations and please check the disclaimer before using these data.